createdAt,value
2019-01-19T00:02:14.463Z,30.83
2019-01-19T00:05:10.449Z,26.00
2019-01-19T00:07:44.656Z,38.00
2019-01-19T00:10:14.484Z,28.73
2019-01-19T00:12:53.189Z,30.23
2019-01-19T00:15:23.011Z,28.63
2019-01-19T00:17:55.652Z,27.37
2019-01-19T00:20:50.102Z,25.90
2019-01-19T00:23:26.275Z,27.47
2019-01-19T00:26:23.170Z,26.23
2019-01-19T00:28:55.806Z,26.60
2019-01-19T00:31:34.634Z,30.00
2019-01-19T00:34:34.165Z,28.93
2019-01-19T00:37:02.324Z,25.00
2019-01-19T00:39:32.139Z,23.30
2019-01-19T00:42:05.000Z,34.27
2019-01-19T00:44:46.636Z,29.53
2019-01-19T00:47:28.331Z,23.37
2019-01-19T00:50:13.003Z,23.60
2019-01-19T00:52:42.863Z,27.20
2019-01-19T00:55:15.456Z,29.00
2019-01-19T00:57:48.266Z,27.13
2019-01-19T01:00:18.125Z,30.97
2019-01-19T01:02:56.811Z,31.63
2019-01-19T01:05:26.635Z,28.97
2019-01-19T01:08:08.146Z,28.73
2019-01-19T01:10:37.966Z,29.17
2019-01-19T01:13:31.999Z,31.13
2019-01-19T01:16:13.543Z,31.90
2019-01-19T01:18:55.437Z,31.43
2019-01-19T01:21:31.499Z,24.03
2019-01-19T01:24:01.332Z,29.10
2019-01-19T01:26:46.451Z,26.17
2019-01-19T01:29:19.228Z,21.10
2019-01-19T01:32:01.412Z,30.27
2019-01-19T01:34:46.388Z,33.03
2019-01-19T01:37:19.040Z,30.03
2019-01-19T01:40:06.753Z,27.53
2019-01-19T01:42:48.822Z,34.43
2019-01-19T01:45:33.971Z,27.83
2019-01-19T01:48:22.184Z,27.50
2019-01-19T01:51:09.381Z,23.67
2019-01-19T01:53:41.720Z,31.60
2019-01-19T01:56:09.036Z,32.20
2019-01-19T01:58:44.533Z,28.17
2019-01-19T02:01:14.372Z,19.97
2019-01-19T02:03:44.217Z,24.93
2019-01-19T02:06:17.395Z,22.00
2019-01-19T02:09:03.878Z,26.45
2019-01-19T02:11:40.932Z,27.90
2019-01-19T02:14:31.564Z,27.40
2019-01-19T02:17:04.147Z,22.60
2019-01-19T02:19:51.904Z,29.23
2019-01-19T02:22:42.651Z,26.97
2019-01-19T02:25:16.826Z,22.97
2019-01-19T02:27:55.935Z,18.70
2019-01-19T02:30:45.344Z,24.43
2019-01-19T02:33:24.094Z,26.67
2019-01-19T02:36:02.670Z,29.13
2019-01-19T02:38:58.512Z,19.40
2019-01-19T02:41:31.244Z,23.70
2019-01-19T02:44:07.021Z,22.97
2019-01-19T02:46:42.851Z,23.03
2019-01-19T02:49:24.684Z,27.50
2019-01-19T02:52:12.131Z,28.13
2019-01-19T02:55:15.956Z,26.43
2019-01-19T02:57:45.774Z,24.00
2019-01-19T03:00:32.538Z,24.33
2019-01-19T03:03:08.012Z,22.23
2019-01-19T03:05:37.920Z,30.07
2019-01-19T03:08:29.251Z,23.77
2019-01-19T03:11:20.713Z,24.20
2019-01-19T03:14:04.634Z,21.60
2019-01-19T03:16:55.495Z,31.03
2019-01-19T03:19:55.611Z,24.53
2019-01-19T03:22:42.327Z,24.87
2019-01-19T03:25:17.940Z,29.40
2019-01-19T03:28:39.160Z,22.83
2019-01-19T03:31:25.934Z,24.20
2019-01-19T03:34:17.882Z,28.43
2019-01-19T03:37:16.866Z,27.50
2019-01-19T03:40:27.796Z,24.23
2019-01-19T03:43:14.227Z,25.27
2019-01-19T03:45:52.693Z,25.90
2019-01-19T03:48:31.678Z,26.23
2019-01-19T03:51:13.248Z,22.73
2019-01-19T03:53:46.278Z,20.30
2019-01-19T03:56:16.120Z,20.23
2019-01-19T03:59:09.690Z,34.27
2019-01-19T04:02:00.312Z,27.37
2019-01-19T04:04:45.379Z,20.80
2019-01-19T04:07:27.275Z,26.77
2019-01-19T04:10:02.351Z,24.43
2019-01-19T04:12:44.380Z,24.70
2019-01-19T04:15:14.204Z,22.07
2019-01-19T04:17:48.146Z,26.23
2019-01-19T04:20:35.944Z,24.47
2019-01-19T04:23:02.779Z,23.80
2019-01-19T04:25:32.601Z,24.27
2019-01-19T04:28:00.533Z,21.07
2019-01-19T04:30:26.569Z,27.30
2019-01-19T04:32:52.599Z,21.30
2019-01-19T04:35:18.615Z,23.03
2019-01-19T04:37:44.640Z,22.03
2019-01-19T04:40:11.199Z,23.23
2019-01-19T04:42:38.140Z,23.23
2019-01-19T04:45:04.964Z,22.57
2019-01-19T04:47:31.007Z,19.17
2019-01-19T04:49:57.020Z,26.43
2019-01-19T04:52:23.035Z,18.53
2019-01-19T04:54:49.082Z,25.27
2019-01-19T04:57:15.191Z,27.37
2019-01-19T04:59:41.264Z,21.30
2019-01-19T05:02:07.277Z,22.53
2019-01-19T05:04:33.296Z,27.97
2019-01-19T05:06:59.442Z,26.40
2019-01-19T05:09:25.463Z,26.93
2019-01-19T05:11:51.479Z,24.27
2019-01-19T05:14:17.511Z,24.20
2019-01-19T05:16:43.671Z,23.57
2019-01-19T05:19:09.701Z,29.17
2019-01-19T05:21:35.839Z,25.55
2019-01-19T05:24:01.871Z,23.53
2019-01-19T05:26:27.876Z,28.43
2019-01-19T05:28:53.908Z,24.37
2019-01-19T05:31:19.924Z,21.60
2019-01-19T05:33:45.975Z,24.37
2019-01-19T05:36:12.010Z,24.30
2019-01-19T05:38:38.024Z,26.30
2019-01-19T05:41:04.057Z,19.77
2019-01-19T05:43:31.148Z,17.57
2019-01-19T05:45:57.211Z,25.33
2019-01-19T05:48:23.316Z,22.27
2019-01-19T05:50:49.327Z,23.20
2019-01-19T05:53:15.360Z,26.30
2019-01-19T05:55:41.460Z,20.83
2019-01-19T05:58:07.491Z,26.47
2019-01-19T06:00:33.907Z,23.43
2019-01-19T06:02:59.947Z,19.63
2019-01-19T06:05:25.963Z,22.53
2019-01-19T06:07:52.087Z,22.90
2019-01-19T06:10:18.117Z,20.70
2019-01-19T06:12:44.138Z,18.50
2019-01-19T06:15:31.940Z,21.10
2019-01-19T06:17:57.976Z,23.93
2019-01-19T06:20:24.107Z,25.63
2019-01-19T06:22:50.159Z,20.00
2019-01-19T06:25:16.284Z,21.40
2019-01-19T06:27:42.471Z,17.83
2019-01-19T06:30:11.915Z,22.17
2019-01-19T06:32:37.932Z,20.00
2019-01-19T06:35:06.354Z,19.77
2019-01-19T06:37:32.383Z,21.03
2019-01-19T06:39:58.392Z,24.33
2019-01-19T06:42:24.428Z,20.87
2019-01-19T06:44:50.435Z,22.50
2019-01-19T06:47:16.492Z,22.93
2019-01-19T06:49:42.509Z,23.03
2019-01-19T06:52:08.571Z,18.30
2019-01-19T06:54:34.580Z,17.93
2019-01-19T06:57:00.599Z,18.23
2019-01-19T06:59:26.768Z,22.67
2019-01-19T07:01:52.788Z,21.83
2019-01-19T07:04:18.822Z,20.23
2019-01-19T07:06:44.839Z,30.23
2019-01-19T07:09:10.876Z,21.60
2019-01-19T07:11:37.215Z,24.90
2019-01-19T07:14:03.231Z,27.97
2019-01-19T07:16:29.272Z,21.50
2019-01-19T07:19:15.187Z,21.50
2019-01-19T07:21:41.221Z,26.67
2019-01-19T07:24:07.284Z,23.50
2019-01-19T07:26:33.311Z,20.17
2019-01-19T07:28:59.328Z,21.63
2019-01-19T07:31:25.393Z,23.20
2019-01-19T07:33:54.188Z,18.67
2019-01-19T07:36:20.212Z,24.70
2019-01-19T07:38:46.254Z,26.67
2019-01-19T07:41:12.276Z,19.07
2019-01-19T07:43:38.428Z,17.80
2019-01-19T07:46:05.964Z,23.60
2019-01-19T07:48:32.002Z,25.60
2019-01-19T07:50:58.047Z,22.13
2019-01-19T07:53:24.068Z,20.00
2019-01-19T07:55:50.083Z,22.90
2019-01-19T07:58:16.145Z,26.37
2019-01-19T08:00:42.256Z,23.27
2019-01-19T08:03:08.295Z,25.00
2019-01-19T08:05:34.308Z,26.37
2019-01-19T08:08:00.356Z,22.67
2019-01-19T08:10:26.411Z,32.57
2019-01-19T08:12:52.428Z,22.57
2019-01-19T08:15:20.996Z,18.77
2019-01-19T08:17:47.039Z,21.93
2019-01-19T08:20:13.650Z,18.60
2019-01-19T08:22:39.707Z,23.00
2019-01-19T08:25:07.907Z,20.13
2019-01-19T08:27:33.971Z,23.50
2019-01-19T08:29:59.992Z,20.47
2019-01-19T08:32:26.010Z,18.37
2019-01-19T08:34:52.119Z,22.30
2019-01-19T08:37:24.310Z,22.77
2019-01-19T08:39:46.475Z,23.87
2019-01-19T08:42:12.516Z,21.33
2019-01-19T08:44:38.536Z,23.50
2019-01-19T08:47:05.683Z,22.70
2019-01-19T08:49:31.727Z,24.72
2019-01-19T08:51:57.761Z,19.43
2019-01-19T08:54:23.788Z,19.93
2019-01-19T08:56:49.828Z,21.03
2019-01-19T08:59:15.861Z,19.73
2019-01-19T09:01:41.987Z,20.57
2019-01-19T09:04:08.047Z,16.47
2019-01-19T09:06:34.105Z,21.17
2019-01-19T09:09:01.163Z,19.60
2019-01-19T09:11:28.102Z,14.53
2019-01-19T09:13:54.343Z,20.63
2019-01-19T09:16:20.772Z,14.73
2019-01-19T09:18:46.792Z,19.73
2019-01-19T09:21:12.832Z,19.03
2019-01-19T09:23:40.781Z,18.60
2019-01-19T09:26:06.816Z,18.20
2019-01-19T09:28:32.866Z,20.87
2019-01-19T09:30:58.983Z,31.47
2019-01-19T09:33:24.999Z,26.77
2019-01-19T09:35:51.047Z,21.07
2019-01-19T09:38:17.059Z,14.87
2019-01-19T09:40:43.104Z,13.57
2019-01-19T09:43:09.193Z,16.10
2019-01-19T09:45:35.216Z,17.37
2019-01-19T09:48:01.271Z,18.67
2019-01-19T09:50:27.342Z,18.90
2019-01-19T09:52:53.398Z,13.00
2019-01-19T09:55:19.444Z,21.15
2019-01-19T09:57:45.485Z,18.17
2019-01-19T10:00:14.928Z,14.77
2019-01-19T10:02:40.989Z,12.00
2019-01-19T10:05:10.645Z,10.53
2019-01-19T10:07:36.710Z,11.97
2019-01-19T10:10:06.556Z,12.87
2019-01-19T10:12:32.596Z,15.03
2019-01-19T10:14:58.619Z,13.47
2019-01-19T10:17:24.736Z,15.03
2019-01-19T10:19:50.791Z,14.30
2019-01-19T10:22:16.929Z,12.83
2019-01-19T10:24:42.958Z,11.85
2019-01-19T10:27:08.995Z,12.83
2019-01-19T10:29:35.020Z,11.80
2019-01-19T10:32:01.064Z,15.40
2019-01-19T10:34:28.120Z,9.60
2019-01-19T10:36:54.139Z,11.87
2019-01-19T10:39:20.184Z,16.57
2019-01-19T10:41:46.222Z,10.70
2019-01-19T10:44:12.268Z,12.47
2019-01-19T10:46:38.319Z,9.87
2019-01-19T10:49:04.367Z,13.70
2019-01-19T10:51:31.136Z,11.83
2019-01-19T10:53:57.321Z,10.53
2019-01-19T10:56:23.499Z,11.60
2019-01-19T10:58:49.520Z,21.20
2019-01-19T11:01:15.629Z,10.40
2019-01-19T11:03:41.692Z,13.20
2019-01-19T11:06:07.759Z,10.90
2019-01-19T11:08:33.772Z,12.70
2019-01-19T11:10:59.842Z,9.63
2019-01-19T11:13:25.872Z,11.23
2019-01-19T11:15:51.935Z,9.40
2019-01-19T11:18:17.951Z,8.55
2019-01-19T11:20:44.000Z,13.67
2019-01-19T11:23:10.032Z,10.00
2019-01-19T11:25:36.080Z,8.67
2019-01-19T11:28:02.111Z,10.53
2019-01-19T11:30:30.157Z,8.10
2019-01-19T11:32:56.175Z,7.47
2019-01-19T11:35:22.228Z,10.13
2019-01-19T11:37:48.317Z,15.27
2019-01-19T11:40:17.521Z,8.97
2019-01-19T11:42:43.555Z,7.43
2019-01-19T11:47:51.582Z,6.43
2019-01-19T11:50:17.616Z,10.00
2019-01-19T11:52:43.645Z,9.03
2019-01-19T11:55:17.451Z,12.47
2019-01-19T11:57:43.593Z,6.33
2019-01-19T12:00:18.051Z,8.00
2019-01-19T12:02:44.079Z,6.43
2019-01-19T12:05:10.126Z,7.77
2019-01-19T12:07:36.266Z,6.13
2019-01-19T12:10:06.131Z,7.77
2019-01-19T12:12:32.156Z,5.57
2019-01-19T12:14:58.254Z,7.90
2019-01-19T12:17:24.287Z,10.57
2019-01-19T12:19:53.786Z,6.03
2019-01-19T12:22:19.827Z,9.03
2019-01-19T12:24:45.871Z,7.63
2019-01-19T12:27:11.903Z,8.93
2019-01-19T12:29:37.945Z,6.30
2019-01-19T12:32:03.964Z,9.07
2019-01-19T12:34:30.004Z,6.90
2019-01-19T12:36:56.018Z,5.53
2019-01-19T12:39:22.076Z,7.73
2019-01-19T12:41:48.123Z,6.50
2019-01-19T12:44:14.181Z,9.40
2019-01-19T12:46:40.220Z,8.60
2019-01-19T12:49:06.263Z,8.30
2019-01-19T12:51:32.296Z,10.53
2019-01-19T12:53:58.339Z,8.53
2019-01-19T12:56:24.355Z,6.00
2019-01-19T12:58:50.398Z,6.97
2019-01-19T13:01:16.414Z,6.37
2019-01-19T13:03:42.491Z,5.87
2019-01-19T13:06:21.564Z,8.43
2019-01-19T13:08:47.705Z,6.73
2019-01-19T13:11:35.527Z,11.73
2019-01-19T13:14:03.375Z,7.80
2019-01-19T13:16:51.196Z,7.67
2019-01-19T13:19:21.053Z,7.60
2019-01-19T13:21:56.747Z,5.40
2019-01-19T13:24:32.572Z,7.93
2019-01-19T13:27:14.737Z,5.60
2019-01-19T13:29:56.124Z,5.30
2019-01-19T13:32:25.995Z,8.23
2019-01-19T13:35:01.821Z,9.23
2019-01-19T13:37:34.400Z,7.93
2019-01-19T13:40:21.148Z,11.57
2019-01-19T13:42:50.981Z,4.50
2019-01-19T13:45:23.899Z,5.03
2019-01-19T13:47:59.830Z,4.43
2019-01-19T13:50:44.514Z,6.17
2019-01-19T13:53:17.323Z,4.30
2019-01-19T13:56:07.957Z,4.23
2019-01-19T13:58:47.041Z,4.07
2019-01-19T14:01:19.999Z,3.97
2019-01-19T14:04:00.055Z,20.57
2019-01-19T14:06:42.316Z,4.83
2019-01-19T14:09:27.040Z,3.47
2019-01-19T14:12:39.704Z,9.70
2019-01-19T14:15:15.612Z,6.10
2019-01-19T14:17:45.467Z,6.63
2019-01-19T14:20:30.620Z,6.30
2019-01-19T14:23:32.661Z,4.70
2019-01-19T14:26:29.753Z,4.87
2019-01-19T14:29:14.211Z,4.37
2019-01-19T14:32:11.810Z,3.57
2019-01-19T14:34:58.538Z,10.53
2019-01-19T14:38:02.332Z,5.60
2019-01-19T14:40:54.740Z,4.87
2019-01-19T14:43:24.571Z,5.90
2019-01-19T14:46:15.496Z,6.07
2019-01-19T14:49:03.300Z,4.17
2019-01-19T14:51:38.666Z,10.67
2019-01-19T14:54:31.751Z,6.23
2019-01-19T14:57:22.872Z,4.60
2019-01-19T14:59:55.928Z,9.83
2019-01-19T15:02:49.994Z,5.47
2019-01-19T15:05:28.703Z,3.27
2019-01-19T15:08:10.995Z,3.93
2019-01-19T15:10:47.627Z,3.87
2019-01-19T15:13:29.375Z,6.23
2019-01-19T15:16:08.279Z,5.60
2019-01-19T15:18:41.041Z,6.83
2019-01-19T15:21:10.907Z,5.33
2019-01-19T15:23:52.811Z,7.43
2019-01-19T15:26:37.520Z,5.20
2019-01-19T15:29:28.271Z,5.97
2019-01-19T15:32:21.890Z,4.30
2019-01-19T15:35:00.744Z,5.33
2019-01-19T15:37:42.661Z,5.40
2019-01-19T15:40:27.771Z,11.80
2019-01-19T15:43:03.656Z,5.50
2019-01-19T15:45:39.309Z,5.97
2019-01-19T15:48:14.471Z,5.97
2019-01-19T15:50:50.115Z,3.83
2019-01-19T15:53:42.362Z,3.57
2019-01-19T15:56:47.248Z,6.93
2019-01-19T15:59:29.387Z,4.23
2019-01-19T16:02:01.998Z,5.43
2019-01-19T16:04:34.679Z,5.10
2019-01-19T16:07:25.895Z,4.33
2019-01-19T16:10:01.110Z,5.47
2019-01-19T16:12:45.883Z,6.53
2019-01-19T16:15:23.562Z,3.90
2019-01-19T16:17:56.158Z,3.30
2019-01-19T16:20:41.153Z,4.00
2019-01-19T16:23:16.665Z,8.40
2019-01-19T16:26:06.740Z,3.90
2019-01-19T16:29:02.204Z,6.67
2019-01-19T16:31:41.128Z,6.33
2019-01-19T16:34:13.844Z,8.03
2019-01-19T16:36:52.704Z,6.60
2019-01-19T16:39:41.022Z,9.13
2019-01-19T16:42:16.791Z,7.17
2019-01-19T16:45:07.816Z,10.47
2019-01-19T16:47:43.989Z,9.63
2019-01-19T16:50:39.327Z,6.07
2019-01-19T16:53:35.908Z,11.37
2019-01-19T16:56:22.650Z,10.27
2019-01-19T16:59:16.255Z,9.00
2019-01-19T17:01:57.620Z,11.03
2019-01-19T17:04:27.452Z,8.63
2019-01-19T17:07:03.379Z,8.47
2019-01-19T17:09:45.535Z,8.90
2019-01-19T17:12:15.356Z,9.57
2019-01-19T17:15:32.462Z,15.93
2019-01-19T17:18:20.274Z,8.77
2019-01-19T17:21:06.806Z,9.77
2019-01-19T17:23:57.024Z,11.37
2019-01-19T17:26:52.932Z,13.00
2019-01-19T17:29:25.486Z,9.97
2019-01-19T17:32:01.316Z,11.73
2019-01-19T17:34:37.058Z,9.17
2019-01-19T17:37:13.147Z,18.60
2019-01-19T17:40:05.504Z,14.07
2019-01-19T17:42:50.395Z,9.97
2019-01-19T17:45:27.624Z,20.30
2019-01-19T17:47:57.481Z,16.03
2019-01-19T17:50:27.308Z,16.20
2019-01-19T17:53:24.767Z,12.70
2019-01-19T17:56:21.580Z,12.30
2019-01-19T17:58:51.431Z,15.43
2019-01-19T18:01:42.539Z,15.23
2019-01-19T18:04:20.893Z,14.17
2019-01-19T18:07:06.137Z,15.70
2019-01-19T18:09:35.970Z,73.47
2019-01-19T18:12:11.916Z,16.77
2019-01-19T18:14:56.880Z,20.03
2019-01-19T18:17:37.342Z,26.67
2019-01-19T18:20:28.245Z,26.10
2019-01-19T18:23:17.865Z,30.93
2019-01-19T18:26:08.749Z,23.90
2019-01-19T18:28:51.034Z,27.13
2019-01-19T18:31:26.962Z,52.40
2019-01-19T18:33:59.895Z,20.57
2019-01-19T18:36:38.457Z,31.77
2019-01-19T18:39:23.158Z,15.07
2019-01-19T18:42:20.706Z,20.23
2019-01-19T18:45:13.399Z,38.80
2019-01-19T18:48:18.311Z,32.10
2019-01-19T18:50:48.226Z,22.07
2019-01-19T18:53:45.065Z,16.60
2019-01-19T18:56:29.863Z,15.67
2019-01-19T18:59:17.815Z,15.43
2019-01-19T19:01:47.644Z,18.80
2019-01-19T19:04:29.859Z,17.03
2019-01-19T19:07:14.544Z,14.10
2019-01-19T19:10:11.258Z,18.33
2019-01-19T19:12:46.999Z,16.13
2019-01-19T19:15:34.831Z,16.27
2019-01-19T19:18:27.304Z,18.40
2019-01-19T19:20:57.220Z,12.33
2019-01-19T19:23:48.486Z,12.67
2019-01-19T19:26:44.271Z,18.37
2019-01-19T19:29:19.439Z,16.23
2019-01-19T19:32:10.193Z,14.87
2019-01-19T19:35:31.168Z,13.10
2019-01-19T19:38:32.932Z,14.57
2019-01-19T19:41:39.477Z,14.13
2019-01-19T19:44:38.422Z,17.93
2019-01-19T19:47:42.935Z,21.77
2019-01-19T19:50:24.289Z,20.10
2019-01-19T19:52:50.336Z,15.53
2019-01-19T19:55:16.172Z,17.70
2019-01-19T19:57:42.196Z,15.73
2019-01-19T20:00:15.952Z,17.10
2019-01-19T20:02:42.006Z,17.73
2019-01-19T20:05:08.430Z,16.77
2019-01-19T20:07:34.467Z,17.07
2019-01-19T20:10:00.503Z,27.90
2019-01-19T20:12:26.647Z,29.37
2019-01-19T20:14:52.695Z,17.63
2019-01-19T20:17:19.152Z,17.67
2019-01-19T20:19:45.193Z,19.43
2019-01-19T20:22:11.246Z,22.23
2019-01-19T20:24:37.263Z,22.87
2019-01-19T20:27:03.303Z,26.70
2019-01-19T20:29:29.347Z,20.87
2019-01-19T20:31:55.399Z,17.07
2019-01-19T20:34:21.447Z,19.20
2019-01-19T20:36:47.483Z,18.17
2019-01-19T20:39:13.508Z,17.23
2019-01-19T20:41:39.560Z,18.33
2019-01-19T20:44:05.586Z,17.20
2019-01-19T20:46:32.667Z,19.63
2019-01-19T20:48:58.812Z,18.40
2019-01-19T20:51:24.869Z,23.10
2019-01-19T20:53:51.101Z,17.67
2019-01-19T20:56:17.221Z,17.63
2019-01-19T20:58:43.263Z,19.43
2019-01-19T21:01:09.312Z,27.20
2019-01-19T21:03:35.352Z,21.80
2019-01-19T21:06:01.395Z,20.00
2019-01-19T21:08:27.411Z,19.07
2019-01-19T21:10:53.455Z,24.90
2019-01-19T21:13:19.503Z,20.27
2019-01-19T21:15:46.567Z,21.73
2019-01-19T21:18:12.634Z,23.90
2019-01-19T21:20:38.664Z,19.53
2019-01-19T21:23:04.703Z,21.30
2019-01-19T21:25:30.728Z,20.30
2019-01-19T21:27:56.819Z,21.43
2019-01-19T21:30:22.844Z,21.33
2019-01-19T21:32:48.920Z,19.83
2019-01-19T21:35:14.935Z,20.97
2019-01-19T21:37:40.964Z,22.17
2019-01-19T21:40:09.916Z,23.03
2019-01-19T21:42:41.791Z,24.40
2019-01-19T21:45:11.144Z,22.10
2019-01-19T21:47:37.169Z,21.67
2019-01-19T21:50:05.509Z,22.30
2019-01-19T21:52:31.543Z,23.50
2019-01-19T21:54:57.577Z,24.00
2019-01-19T21:57:23.599Z,22.30
2019-01-19T21:59:49.651Z,23.53
2019-01-19T22:02:24.707Z,20.40
2019-01-19T22:04:50.747Z,20.90
2019-01-19T22:07:16.767Z,26.93
2019-01-19T22:09:42.820Z,20.33
2019-01-19T22:12:11.860Z,17.83
2019-01-19T22:14:37.876Z,21.20
2019-01-19T22:17:03.931Z,19.43
2019-01-19T22:19:30.999Z,20.33
2019-01-19T22:21:57.033Z,23.80
2019-01-19T22:24:23.076Z,22.03
2019-01-19T22:26:50.520Z,20.83
2019-01-19T22:29:16.771Z,21.87
2019-01-19T22:31:42.795Z,22.70
2019-01-19T22:34:08.807Z,22.57
2019-01-19T22:36:34.872Z,22.80
2019-01-19T22:39:00.895Z,20.80
2019-01-19T22:41:26.937Z,20.27
2019-01-19T22:43:52.971Z,19.23
2019-01-19T22:46:19.063Z,18.53
2019-01-19T22:48:45.088Z,20.53
2019-01-19T22:51:11.598Z,25.33
2019-01-19T22:53:37.836Z,24.40
2019-01-19T22:56:03.854Z,19.83
2019-01-19T22:58:29.887Z,21.63
2019-01-19T23:01:01.615Z,22.33
2019-01-19T23:03:29.452Z,19.17
2019-01-19T23:05:55.468Z,21.07
2019-01-19T23:08:21.512Z,20.83
2019-01-19T23:10:47.546Z,20.57
2019-01-19T23:13:13.560Z,25.40
2019-01-19T23:15:39.608Z,23.67
2019-01-19T23:18:05.619Z,26.40
2019-01-19T23:20:31.660Z,24.10
2019-01-19T23:22:57.747Z,25.57
2019-01-19T23:25:23.791Z,22.03
2019-01-19T23:27:49.815Z,21.83
2019-01-19T23:30:15.852Z,22.13
2019-01-19T23:32:41.967Z,22.17
2019-01-19T23:35:08.007Z,24.57
2019-01-19T23:37:34.030Z,19.67
2019-01-19T23:40:01.716Z,24.97
2019-01-19T23:42:28.000Z,23.67
2019-01-19T23:44:54.036Z,19.33
2019-01-19T23:47:20.059Z,27.57
2019-01-19T23:49:46.086Z,23.60
2019-01-19T23:52:12.119Z,21.47
2019-01-19T23:54:38.135Z,26.23
2019-01-19T23:57:04.174Z,21.83
2019-01-19T23:59:30.191Z,24.60
